createdAt,value
2023-02-13T00:02:59.817Z,7.10
2023-02-13T00:06:02.453Z,7.90
2023-02-13T00:09:06.467Z,8.05
2023-02-13T00:12:10.215Z,9.18
2023-02-13T00:15:13.247Z,8.98
2023-02-13T00:18:15.841Z,9.00
2023-02-13T00:21:18.254Z,9.98
2023-02-13T00:24:21.002Z,10.05
2023-02-13T00:27:23.338Z,9.57
2023-02-13T00:30:25.966Z,11.05
2023-02-13T00:33:28.283Z,10.85
2023-02-13T00:36:30.975Z,11.52
2023-02-13T00:39:33.415Z,11.57
2023-02-13T00:42:35.997Z,12.73
2023-02-13T00:45:38.335Z,11.48
2023-02-13T00:48:41.189Z,10.60
2023-02-13T00:51:43.624Z,10.48
2023-02-13T00:54:47.801Z,10.55
2023-02-13T00:57:50.482Z,9.60
2023-02-13T01:00:54.681Z,9.93
2023-02-13T01:03:57.175Z,9.95
2023-02-13T01:06:59.942Z,9.32
2023-02-13T01:10:02.262Z,10.05
2023-02-13T01:13:05.558Z,9.88
2023-02-13T01:16:08.637Z,10.77
2023-02-13T01:19:11.278Z,11.12
2023-02-13T01:22:13.583Z,13.57
2023-02-13T01:25:16.593Z,14.27
2023-02-13T01:28:19.105Z,15.15
2023-02-13T01:31:22.414Z,15.25
2023-02-13T01:34:25.665Z,16.65
2023-02-13T01:37:28.288Z,16.60
2023-02-13T01:40:31.876Z,17.08
2023-02-13T01:43:56.409Z,15.15
2023-02-13T01:46:58.744Z,16.80
2023-02-13T01:50:18.835Z,16.15
2023-02-13T01:53:33.223Z,15.77
2023-02-13T01:56:41.400Z,16.55
2023-02-13T01:59:58.449Z,17.05
2023-02-13T02:03:09.027Z,16.48
2023-02-13T02:06:21.626Z,18.15
2023-02-13T02:09:27.575Z,17.60
2023-02-13T02:12:50.009Z,17.67
2023-02-13T02:15:53.183Z,16.95
2023-02-13T02:18:56.118Z,17.77
2023-02-13T02:21:58.421Z,17.60
2023-02-13T02:25:10.441Z,17.05
2023-02-13T02:28:28.368Z,18.23
2023-02-13T02:31:52.260Z,18.50
2023-02-13T02:35:09.829Z,20.05
2023-02-13T02:38:39.981Z,20.55
2023-02-13T02:41:58.339Z,20.58
2023-02-13T02:45:16.714Z,20.65
2023-02-13T02:49:33.579Z,21.87
2023-02-13T02:52:39.892Z,20.33
2023-02-13T02:56:11.411Z,21.48
2023-02-13T02:59:36.734Z,21.48
2023-02-13T03:02:57.925Z,20.42
2023-02-13T03:06:14.084Z,23.70
2023-02-13T03:09:40.478Z,23.23
2023-02-13T03:13:11.550Z,21.67
2023-02-13T03:16:38.835Z,23.15
2023-02-13T03:20:19.991Z,22.65
2023-02-13T03:23:47.707Z,22.33
2023-02-13T03:26:50.787Z,22.48
2023-02-13T03:30:07.935Z,21.17
2023-02-13T03:33:10.460Z,22.10
2023-02-13T03:36:50.573Z,21.83
2023-02-13T03:40:09.566Z,21.02
2023-02-13T03:43:17.860Z,21.33
2023-02-13T03:46:21.407Z,22.37
2023-02-13T03:49:50.371Z,22.48
2023-02-13T03:52:52.919Z,21.95
2023-02-13T03:56:15.468Z,21.95
2023-02-13T03:59:27.085Z,21.25
2023-02-13T04:02:36.542Z,20.92
2023-02-13T04:05:44.978Z,21.00
2023-02-13T04:08:47.626Z,20.48
2023-02-13T04:11:54.453Z,20.23
2023-02-13T04:15:04.309Z,19.75
2023-02-13T04:18:32.089Z,19.83
2023-02-13T04:21:35.751Z,18.67
2023-02-13T04:27:40.474Z,17.33
2023-02-13T04:30:43.316Z,17.58
2023-02-13T04:33:45.717Z,18.08
2023-02-13T04:36:48.441Z,18.67
2023-02-13T04:39:50.734Z,17.52
2023-02-13T04:42:53.382Z,18.77
2023-02-13T04:45:55.727Z,17.37
2023-02-13T04:48:58.471Z,17.35
2023-02-13T04:52:00.758Z,18.00
2023-02-13T04:55:04.053Z,17.23
2023-02-13T04:58:06.522Z,17.10
2023-02-13T05:01:17.044Z,16.60
2023-02-13T05:04:19.545Z,17.05
2023-02-13T05:07:22.131Z,16.85
2023-02-13T05:10:24.495Z,16.00
2023-02-13T05:13:27.129Z,16.60
2023-02-13T05:16:29.440Z,16.52
2023-02-13T05:19:32.566Z,16.40
2023-02-13T05:22:53.690Z,17.60
2023-02-13T05:25:56.472Z,17.52
2023-02-13T05:29:17.735Z,15.15
2023-02-13T05:32:20.505Z,16.77
2023-02-13T05:35:23.733Z,16.45
2023-02-13T05:38:26.406Z,15.18
2023-02-13T05:41:28.777Z,16.30
2023-02-13T05:44:33.496Z,15.95
2023-02-13T05:47:36.357Z,16.12
2023-02-13T05:50:39.196Z,15.60
2023-02-13T05:53:41.527Z,14.63
2023-02-13T05:56:44.308Z,15.57
2023-02-13T05:59:46.670Z,16.10
2023-02-13T06:02:49.284Z,16.08
2023-02-13T06:05:52.969Z,15.55
2023-02-13T06:08:55.297Z,16.33
2023-02-13T06:11:57.916Z,15.73
2023-02-13T06:15:00.258Z,16.00
2023-02-13T06:18:02.879Z,16.33
2023-02-13T06:21:06.042Z,16.08
2023-02-13T06:24:08.957Z,16.15
2023-02-13T06:27:11.453Z,16.80
2023-02-13T06:30:15.157Z,15.85
2023-02-13T06:33:17.488Z,16.40
2023-02-13T06:36:20.415Z,15.95
2023-02-13T06:39:22.745Z,15.38
2023-02-13T06:42:25.478Z,15.60
2023-02-13T06:45:27.765Z,14.75
2023-02-13T06:48:30.333Z,15.52
2023-02-13T06:51:32.758Z,14.20
2023-02-13T06:54:46.893Z,14.93
2023-02-13T06:57:50.204Z,16.73
2023-02-13T07:00:53.250Z,14.75
2023-02-13T07:03:55.634Z,14.73
2023-02-13T07:06:58.236Z,15.68
2023-02-13T07:10:00.998Z,16.77
2023-02-13T07:13:06.080Z,17.35
2023-02-13T07:19:11.701Z,21.23
2023-02-13T07:22:14.421Z,19.37
2023-02-13T07:25:17.392Z,18.08
2023-02-13T07:28:19.791Z,17.95
2023-02-13T07:31:22.555Z,18.70
2023-02-13T07:34:25.032Z,18.83
2023-02-13T07:37:29.422Z,20.33
2023-02-13T07:40:31.749Z,22.60
2023-02-13T07:43:34.556Z,21.87
2023-02-13T07:46:37.528Z,22.67
2023-02-13T07:49:40.284Z,22.25
2023-02-13T07:52:42.616Z,23.20
2023-02-13T07:55:45.210Z,22.27
2023-02-13T07:58:47.493Z,22.33
2023-02-13T08:01:50.238Z,22.58
2023-02-13T08:04:52.983Z,21.27
2023-02-13T08:07:55.406Z,21.05
2023-02-13T08:11:22.355Z,21.08
2023-02-13T08:14:26.945Z,20.05
2023-02-13T08:17:29.600Z,18.83
2023-02-13T08:20:31.968Z,29.83
2023-02-13T08:23:34.782Z,19.73
2023-02-13T08:26:37.291Z,18.60
2023-02-13T08:29:40.312Z,17.73
2023-02-13T08:32:53.758Z,16.50
2023-02-13T08:35:57.436Z,15.63
2023-02-13T08:39:15.769Z,16.25
2023-02-13T08:42:25.316Z,15.30
2023-02-13T08:45:28.507Z,13.98
2023-02-13T08:48:31.635Z,13.20
2023-02-13T08:51:45.085Z,13.62
2023-02-13T08:54:52.117Z,14.02
2023-02-13T08:57:54.575Z,14.40
2023-02-13T09:01:00.124Z,14.77
2023-02-13T09:04:02.659Z,13.35
2023-02-13T09:07:05.326Z,13.32
2023-02-13T09:10:08.651Z,13.77
2023-02-13T09:13:16.304Z,12.88
2023-02-13T09:16:31.488Z,12.32
2023-02-13T09:19:35.925Z,12.77
2023-02-13T09:22:38.337Z,12.82
2023-02-13T09:25:46.200Z,13.20
2023-02-13T09:28:53.452Z,12.52
2023-02-13T09:31:56.247Z,13.18
2023-02-13T09:34:58.745Z,13.63
2023-02-13T09:38:01.594Z,13.17
2023-02-13T09:41:10.162Z,13.73
2023-02-13T09:44:36.381Z,13.62
2023-02-13T09:47:44.131Z,13.88
2023-02-13T09:50:46.855Z,14.63
2023-02-13T09:53:56.996Z,13.93
2023-02-13T09:57:28.875Z,14.57
2023-02-13T10:00:57.469Z,15.32
2023-02-13T10:04:26.157Z,15.30
2023-02-13T10:07:44.178Z,15.05
2023-02-13T10:11:04.199Z,15.00
2023-02-13T10:14:36.340Z,15.68
2023-02-13T10:17:45.205Z,15.82
2023-02-13T10:21:13.837Z,15.90
2023-02-13T10:24:29.867Z,15.10
2023-02-13T10:27:37.460Z,14.00
2023-02-13T10:30:57.059Z,15.18
2023-02-13T10:34:06.704Z,14.45
2023-02-13T10:37:19.499Z,14.13
2023-02-13T10:40:28.758Z,15.13
2023-02-13T10:43:40.716Z,14.77
2023-02-13T10:47:13.397Z,15.20
2023-02-13T10:50:15.981Z,13.20
2023-02-13T10:53:28.719Z,14.50
2023-02-13T10:56:57.016Z,13.07
2023-02-13T11:00:36.607Z,13.80
2023-02-13T11:03:39.657Z,13.10
2023-02-13T11:06:47.105Z,13.07
2023-02-13T11:09:53.105Z,13.25
2023-02-13T11:12:55.660Z,13.80
2023-02-13T11:16:05.203Z,13.82
2023-02-13T11:19:23.352Z,15.02
2023-02-13T11:22:31.721Z,15.60
2023-02-13T11:25:34.253Z,14.52
2023-02-13T11:28:46.668Z,16.33
2023-02-13T11:32:21.198Z,16.10
2023-02-13T11:35:33.609Z,15.27
2023-02-13T11:38:36.628Z,15.38
2023-02-13T11:41:49.973Z,15.63
2023-02-13T11:44:58.648Z,15.02
2023-02-13T11:48:01.366Z,15.43
2023-02-13T11:51:04.515Z,15.57
2023-02-13T11:54:37.569Z,15.80
2023-02-13T11:57:39.940Z,15.80
2023-02-13T12:00:43.487Z,16.45
2023-02-13T12:03:57.631Z,15.27
2023-02-13T12:07:12.286Z,15.70
2023-02-13T12:10:23.780Z,15.45
2023-02-13T12:13:39.073Z,16.48
2023-02-13T12:16:50.643Z,16.25
2023-02-13T12:19:55.642Z,15.98
2023-02-13T12:23:24.369Z,16.45
2023-02-13T12:26:38.584Z,16.25
2023-02-13T12:29:53.468Z,16.27
2023-02-13T12:33:20.147Z,16.12
2023-02-13T12:37:01.162Z,15.80
2023-02-13T12:40:20.969Z,15.80
2023-02-13T12:43:45.147Z,17.02
2023-02-13T12:47:15.882Z,16.45
2023-02-13T12:51:00.579Z,16.85
2023-02-13T12:54:24.582Z,16.55
2023-02-13T12:57:47.987Z,17.70
2023-02-13T13:01:03.559Z,17.60
2023-02-13T13:04:06.133Z,19.08
2023-02-13T13:07:56.559Z,17.58
2023-02-13T13:11:28.048Z,15.00
2023-02-13T13:14:55.097Z,16.40
2023-02-13T13:18:04.313Z,7.72
2023-02-13T13:21:28.318Z,7.43
2023-02-13T13:27:44.350Z,5.45
2023-02-13T13:30:48.326Z,5.70
2023-02-13T13:33:50.687Z,5.07
2023-02-13T13:37:07.961Z,5.62
2023-02-13T13:40:25.236Z,5.47
2023-02-13T13:44:34.864Z,5.62
2023-02-13T13:47:50.732Z,5.80
2023-02-13T13:50:54.195Z,5.53
2023-02-13T13:54:17.972Z,6.32
2023-02-13T13:57:25.763Z,6.60
2023-02-13T14:00:30.856Z,6.53
2023-02-13T14:03:38.243Z,7.22
2023-02-13T14:06:43.583Z,7.18
2023-02-13T14:09:49.296Z,6.05
2023-02-13T14:12:57.440Z,5.50
2023-02-13T14:16:13.598Z,5.72
2023-02-13T14:19:46.523Z,10.60
2023-02-13T14:22:49.246Z,7.47
2023-02-13T14:26:11.266Z,6.87
2023-02-13T14:29:33.532Z,7.37
2023-02-13T14:32:39.317Z,8.68
2023-02-13T14:35:42.193Z,8.65
2023-02-13T14:38:44.549Z,8.95
2023-02-13T14:41:56.131Z,10.15
2023-02-13T14:45:02.488Z,9.50
2023-02-13T14:48:11.740Z,9.55
2023-02-13T14:51:38.833Z,9.55
2023-02-13T14:54:55.849Z,9.80
2023-02-13T14:58:06.502Z,10.57
2023-02-13T15:01:35.699Z,8.60
2023-02-13T15:04:48.694Z,9.65
2023-02-13T15:07:59.193Z,12.85
2023-02-13T15:11:01.775Z,9.38
2023-02-13T15:14:17.467Z,8.25
2023-02-13T15:17:26.544Z,9.30
2023-02-13T15:20:34.078Z,8.68
2023-02-13T15:23:36.499Z,8.20
2023-02-13T15:26:39.454Z,7.93
2023-02-13T15:29:58.860Z,8.55
2023-02-13T15:33:07.042Z,9.02
2023-02-13T15:36:24.422Z,8.93
2023-02-13T15:39:33.162Z,7.62
2023-02-13T15:42:39.475Z,8.20
2023-02-13T15:45:44.098Z,8.18
2023-02-13T15:48:47.814Z,7.22
2023-02-13T15:55:01.379Z,6.97
2023-02-13T15:58:05.769Z,7.18
2023-02-13T16:01:11.964Z,6.93
2023-02-13T16:04:17.956Z,7.05
2023-02-13T16:07:20.610Z,6.60
2023-02-13T16:10:31.559Z,6.72
2023-02-13T16:13:34.591Z,6.70
2023-02-13T16:17:12.839Z,10.40
2023-02-13T16:20:22.576Z,8.18
2023-02-13T16:23:25.312Z,6.47
2023-02-13T16:26:27.938Z,5.60
2023-02-13T16:29:30.897Z,5.75
2023-02-13T16:32:38.202Z,6.72
2023-02-13T16:36:09.987Z,6.18
2023-02-13T16:39:20.093Z,5.70
2023-02-13T16:42:22.834Z,5.97
2023-02-13T16:45:25.370Z,6.12
2023-02-13T16:48:28.289Z,6.18
2023-02-13T16:51:30.601Z,5.80
2023-02-13T16:54:38.201Z,5.90
2023-02-13T16:57:41.985Z,4.97
2023-02-13T17:03:54.049Z,5.22
2023-02-13T17:06:56.856Z,5.87
2023-02-13T17:10:17.432Z,5.37
2023-02-13T17:13:21.731Z,5.53
2023-02-13T17:19:30.067Z,5.72
2023-02-13T17:22:40.761Z,6.12
2023-02-13T17:25:50.349Z,6.60
2023-02-13T17:28:54.177Z,5.53
2023-02-13T17:31:59.843Z,6.22
2023-02-13T17:35:06.626Z,6.20
2023-02-13T17:38:11.169Z,6.30
2023-02-13T17:41:16.029Z,6.50
2023-02-13T17:44:20.246Z,7.25
2023-02-13T17:50:29.422Z,6.60
2023-02-13T17:53:32.091Z,6.53
2023-02-13T17:56:34.693Z,6.65
2023-02-13T17:59:37.232Z,7.00
2023-02-13T18:02:42.548Z,6.32
2023-02-13T18:05:48.542Z,6.43
2023-02-13T18:08:51.256Z,6.70
2023-02-13T18:12:04.889Z,7.80
2023-02-13T18:15:08.333Z,7.37
2023-02-13T18:18:12.425Z,7.73
2023-02-13T18:21:14.723Z,7.25
2023-02-13T18:24:17.447Z,9.57
2023-02-13T18:27:19.928Z,7.80
2023-02-13T18:30:23.058Z,7.95
2023-02-13T18:33:25.563Z,8.23
2023-02-13T18:36:28.250Z,7.95
2023-02-13T18:39:32.043Z,8.02
2023-02-13T18:42:36.087Z,7.10
2023-02-13T18:45:38.798Z,7.43
2023-02-13T18:48:41.500Z,7.80
2023-02-13T18:51:44.523Z,11.57
2023-02-13T18:54:47.152Z,9.45
2023-02-13T18:57:52.883Z,7.82
2023-02-13T19:00:57.289Z,8.00
2023-02-13T19:04:02.387Z,8.40
2023-02-13T19:07:05.138Z,8.35
2023-02-13T19:10:07.953Z,8.32
2023-02-13T19:13:10.646Z,8.30
2023-02-13T19:16:17.836Z,7.80
2023-02-13T19:19:20.451Z,7.55
2023-02-13T19:22:22.860Z,8.63
2023-02-13T19:25:25.496Z,9.50
2023-02-13T19:28:27.800Z,11.63
2023-02-13T19:31:32.071Z,9.45
2023-02-13T19:37:43.872Z,9.05
2023-02-13T19:40:46.742Z,8.70
2023-02-13T19:43:53.721Z,8.88
2023-02-13T19:46:57.028Z,8.63
2023-02-13T19:49:59.674Z,8.55
2023-02-13T19:53:04.264Z,8.55
2023-02-13T19:56:08.289Z,8.68
2023-02-13T19:59:13.299Z,8.38
2023-02-13T20:02:17.238Z,8.43
2023-02-13T20:05:19.999Z,8.50
2023-02-13T20:08:22.314Z,8.00
2023-02-13T20:11:25.227Z,7.95
2023-02-13T20:14:27.532Z,8.05
2023-02-13T20:17:30.439Z,7.60
2023-02-13T20:20:32.786Z,7.72
2023-02-13T20:23:35.664Z,8.30
2023-02-13T20:26:39.592Z,8.13
2023-02-13T20:29:42.765Z,9.10
2023-02-13T20:32:45.122Z,8.57
2023-02-13T20:35:47.794Z,8.98
2023-02-13T20:38:53.285Z,8.75
2023-02-13T20:41:59.000Z,8.15
2023-02-13T20:45:01.753Z,8.70
2023-02-13T20:48:04.856Z,9.67
2023-02-13T20:51:09.723Z,9.88
2023-02-13T20:54:12.478Z,10.70
2023-02-13T20:57:15.760Z,10.25
2023-02-13T21:00:18.623Z,9.77
2023-02-13T21:03:20.923Z,10.30
2023-02-13T21:06:32.007Z,11.18
2023-02-13T21:09:34.570Z,9.50
2023-02-13T21:12:37.190Z,10.38
2023-02-13T21:15:39.664Z,11.12
2023-02-13T21:18:43.476Z,10.18
2023-02-13T21:21:45.952Z,10.20
2023-02-13T21:24:50.141Z,9.77
2023-02-13T21:27:52.506Z,10.02
2023-02-13T21:30:55.146Z,10.60
2023-02-13T21:33:59.728Z,8.68
2023-02-13T21:37:02.615Z,8.65
2023-02-13T21:40:05.878Z,8.05
2023-02-13T21:43:08.711Z,8.68
2023-02-13T21:46:20.244Z,8.93
2023-02-13T21:49:25.763Z,8.27
2023-02-13T21:52:28.162Z,7.75
2023-02-13T21:55:32.545Z,8.20
2023-02-13T22:01:38.345Z,8.25
2023-02-13T22:04:42.209Z,7.62
2023-02-13T22:08:03.128Z,11.05
2023-02-13T22:11:05.827Z,10.45
2023-02-13T22:14:12.979Z,10.07
2023-02-13T22:17:15.816Z,9.75
2023-02-13T22:20:18.883Z,10.77
2023-02-13T22:23:21.507Z,11.40
2023-02-13T22:26:25.691Z,10.40
2023-02-13T22:29:28.365Z,10.95
2023-02-13T22:32:31.608Z,10.65
2023-02-13T22:35:40.796Z,9.82
2023-02-13T22:38:43.159Z,10.20
2023-02-13T22:41:48.586Z,10.73
2023-02-13T22:44:50.949Z,8.00
2023-02-13T22:47:53.934Z,8.05
2023-02-13T22:50:56.346Z,9.65
2023-02-13T22:53:59.621Z,8.55
2023-02-13T22:57:01.986Z,7.80
2023-02-13T23:00:11.450Z,7.57
2023-02-13T23:03:15.199Z,7.53
2023-02-13T23:09:20.684Z,7.62
2023-02-13T23:12:45.512Z,8.10
2023-02-13T23:18:55.043Z,7.62
2023-02-13T23:21:58.588Z,7.53
2023-02-13T23:25:02.775Z,8.02
2023-02-13T23:28:06.062Z,8.20
2023-02-13T23:31:09.341Z,7.82
2023-02-13T23:34:11.882Z,8.63
2023-02-13T23:37:14.651Z,8.20
2023-02-13T23:40:17.596Z,7.95
2023-02-13T23:43:20.264Z,8.25
2023-02-13T23:46:22.775Z,8.15
2023-02-13T23:49:25.565Z,9.75
2023-02-13T23:52:28.449Z,9.15
2023-02-13T23:55:31.055Z,9.67
2023-02-13T23:58:33.626Z,8.20
